Time;durP1;ratioP1;P1;durP2;ratioP2;P2;SDS_P1;SDS_P2;PMS_P1;PMS_P2;Temp;Humidity;BMP_temperature;BMP_pressure;BME280_temperature;BME280_humidity;BME280_pressure;Samples;Min_cycle;Max_cycle;Signal;HPM_P1;HPM_P2
2021/12/11 00:01:42;;;;;;;13.18;9.68;;;;;;;9.13;81.70;100327.17;1658884;85;27257;-68
2021/12/11 00:04:13;;;;;;;14.05;9.95;;;;;;;9.16;81.83;100319.20;1664257;84;21066;-69
2021/12/11 00:06:45;;;;;;;12.65;9.80;;;;;;;9.15;81.85;100330.40;1657287;85;21561;-69
2021/12/11 00:09:23;;;;;;;13.70;10.60;;;;;;;9.18;81.82;100317.10;1655152;84;21099;-69
2021/12/11 00:12:00;;;;;;;12.20;10.25;;;;;;;9.17;81.79;100318.14;1659459;85;21597;-69
2021/12/11 00:14:29;;;;;;;15.98;11.43;;;;;;;9.18;81.84;100322.94;1666497;85;21506;-69
2021/12/11 00:16:56;;;;;;;14.73;10.60;;;;;;;9.14;81.87;100316.78;1656556;85;21174;-69
2021/12/11 00:19:27;;;;;;;13.62;10.80;;;;;;;9.14;81.93;100323.44;1716548;82;20970;-69
2021/12/11 00:21:55;;;;;;;12.88;9.88;;;;;;;9.14;81.98;100326.10;1645725;86;21026;-70
2021/12/11 00:24:26;;;;;;;15.45;11.22;;;;;;;9.16;82.05;100327.20;1673811;84;21055;-69
2021/12/11 00:27:00;;;;;;;14.43;10.32;;;;;;;9.19;82.10;100333.36;1680118;84;21684;-69
2021/12/11 00:29:29;;;;;;;16.27;11.48;;;;;;;9.23;82.02;100329.66;1671936;84;21171;-70
2021/12/11 00:32:03;;;;;;;14.63;10.85;;;;;;;9.25;82.01;100331.55;1680698;83;21153;-68
2021/12/11 00:34:30;;;;;;;;;;;;;;;9.28;81.97;100317.69;1658456;85;21458;-69
2021/12/11 00:37:01;;;;;;;13.55;10.95;;;;;;;9.31;81.93;100319.84;1665562;85;20256;-69
2021/12/11 00:39:29;;;;;;;14.78;12.20;;;;;;;9.31;81.87;100318.02;1665908;85;21117;-69
2021/12/11 00:42:00;;;;;;;16.60;10.98;;;;;;;9.30;81.87;100318.25;1682394;84;21678;-69
2021/12/11 00:44:43;;;;;;;15.13;11.40;;;;;;;9.32;81.82;100318.81;1662897;84;21039;-69
2021/12/11 00:47:24;;;;;;;14.03;11.55;;;;;;;9.37;81.73;100324.17;1678259;84;21109;-69
2021/12/11 00:50:01;;;;;;;13.45;11.25;;;;;;;9.34;81.84;100328.67;1673534;84;21585;-69
2021/12/11 00:52:41;;;;;;;15.18;12.18;;;;;;;9.33;81.90;100322.55;1673506;84;21005;-69
2021/12/11 00:55:28;;;;;;;16.82;10.82;;;;;;;9.35;81.97;100325.77;1671896;84;21106;-70
2021/12/11 00:58:31;;;;;;;15.60;10.25;;;;;;;9.37;82.05;100326.83;1663597;84;21109;-69
2021/12/11 01:01:04;;;;;;;;;;;;;;;9.40;82.08;100323.66;1669167;84;21117;-70
2021/12/11 01:03:51;;;;;;;14.35;10.88;;;;;;;9.39;82.10;100319.40;1660136;85;20232;-69
2021/12/11 01:06:23;;;;;;;14.30;11.30;;;;;;;9.39;82.12;100324.73;1659643;84;21112;-70
2021/12/11 01:08:57;;;;;;;;;;;;;;;9.38;82.16;100324.46;1665419;85;21193;-69
2021/12/11 01:11:38;;;;;;;16.02;12.05;;;;;;;9.40;82.19;100326.33;1716529;82;20176;-69
2021/12/11 01:14:36;;;;;;;15.20;11.40;;;;;;;9.39;82.20;100325.53;1716371;81;21110;-69
2021/12/11 01:17:06;;;;;;;15.30;11.40;;;;;;;9.40;82.24;100325.80;1682053;82;21069;-68
2021/12/11 01:19:38;;;;;;;14.50;11.10;;;;;;;9.38;82.26;100325.27;1710826;83;21165;-68
2021/12/11 01:22:19;;;;;;;14.98;11.53;;;;;;;9.41;82.27;100322.63;1677772;84;21202;-69
2021/12/11 01:24:44;;;;;;;16.10;11.65;;;;;;;9.42;82.28;100321.55;1660119;84;21623;-69
2021/12/11 01:27:15;;;;;;;16.00;11.80;;;;;;;9.39;82.27;100318.86;1664291;85;21086;-69
2021/12/11 01:29:43;;;;;;;16.00;11.73;;;;;;;9.40;82.33;100315.66;1713617;81;21575;-68
2021/12/11 01:32:11;;;;;;;13.72;11.35;;;;;;;9.39;82.30;100310.87;1713524;82;21579;-69
2021/12/11 01:34:38;;;;;;;14.50;11.95;;;;;;;9.38;82.32;100311.13;1711289;82;21149;-69
2021/12/11 01:37:06;;;;;;;13.05;10.98;;;;;;;9.37;82.40;100311.64;1704849;83;21121;-68
2021/12/11 01:39:36;;;;;;;17.15;12.98;;;;;;;9.37;82.42;100310.31;1712924;83;21058;-69
2021/12/11 01:42:11;;;;;;;15.08;11.10;;;;;;;9.37;82.48;100312.97;1718125;83;21552;-69
2021/12/11 01:44:38;;;;;;;15.72;11.55;;;;;;;9.39;82.51;100321.53;1652571;86;21502;-69
2021/12/11 01:47:12;;;;;;;16.45;12.58;;;;;;;9.40;82.55;100319.13;1661109;85;21157;-70
2021/12/11 01:49:41;;;;;;;15.05;11.28;;;;;;;9.41;82.59;100317.30;1664213;84;21085;-68
2021/12/11 01:52:13;;;;;;;13.72;11.10;;;;;;;9.43;82.65;100323.16;1679787;84;21062;-71
2021/12/11 01:54:44;;;;;;;13.80;12.05;;;;;;;9.44;82.71;100321.28;1673752;85;21129;-69
2021/12/11 01:57:24;;;;;;;15.03;11.40;;;;;;;9.46;82.70;100317.31;1690851;84;21731;-69
2021/12/11 01:59:59;;;;;;;14.80;12.13;;;;;;;9.47;82.69;100312.78;1676075;84;21115;-68
2021/12/11 02:02:31;;;;;;;17.60;12.13;;;;;;;9.46;82.74;100303.98;1683839;84;21118;-69
2021/12/11 02:04:57;;;;;;;15.70;10.93;;;;;;;9.40;82.91;100307.67;1676116;85;21700;-69
2021/12/11 02:07:33;;;;;;;14.25;12.00;;;;;;;9.43;82.93;100309.83;1689903;84;21691;-69
2021/12/11 02:10:01;;;;;;;13.78;11.57;;;;;;;9.42;83.01;100312.23;1676205;84;21113;-69
2021/12/11 02:12:37;;;;;;;14.58;11.63;;;;;;;9.42;83.07;100311.43;1683775;84;21163;-69
2021/12/11 02:15:08;;;;;;;15.65;12.20;;;;;;;9.43;83.16;100307.70;1690774;83;21525;-68
2021/12/11 02:17:40;;;;;;;;;;;;;;;9.42;83.27;100311.43;1689624;85;21581;-69
2021/12/11 02:20:12;;;;;;;15.15;12.28;;;;;;;9.42;83.35;100311.43;1676960;85;20507;-69
2021/12/11 02:22:43;;;;;;;15.07;12.23;;;;;;;9.38;83.43;100318.59;1691272;84;21062;-68
2021/12/11 02:25:14;;;;;;;16.42;12.18;;;;;;;9.36;83.56;100324.70;1671829;84;21881;-68
2021/12/11 02:27:53;;;;;;;15.03;12.43;;;;;;;9.32;83.71;100330.80;1667578;85;21074;-69
2021/12/11 02:30:37;;;;;;;16.62;12.68;;;;;;;9.30;83.85;100331.58;1674828;85;21081;-69
2021/12/11 02:33:21;;;;;;;17.25;12.82;;;;;;;9.27;84.04;100338.74;1690879;84;21682;-69
2021/12/11 02:36:01;;;;;;;16.65;13.30;;;;;;;9.26;84.25;100339.28;1676183;84;21637;-69
2021/12/11 02:38:48;;;;;;;15.75;12.98;;;;;;;9.30;84.15;100335.58;1673497;84;21705;-68
2021/12/11 02:41:20;;;;;;;15.03;13.20;;;;;;;9.31;84.18;100342.50;1646409;86;21087;-68
2021/12/11 02:43:54;;;;;;;15.67;12.37;;;;;;;9.31;84.28;100334.51;1621570;85;21444;-68
2021/12/11 02:46:35;;;;;;;16.27;12.60;;;;;;;9.31;84.33;100328.67;1690789;84;21097;-68
2021/12/11 02:49:15;;;;;;;16.57;12.80;;;;;;;9.33;84.29;100333.73;1675289;85;21046;-68
2021/12/11 02:52:03;;;;;;;;;;;;;;;9.33;84.31;100337.20;1693178;84;21026;-68
2021/12/11 02:54:44;;;;;;;17.45;13.72;;;;;;;9.46;83.97;100334.64;1684359;84;20465;-69
2021/12/11 02:57:22;;;;;;;18.80;12.87;;;;;;;9.52;83.60;100334.16;1691350;84;21173;-69
2021/12/11 02:59:48;;;;;;;13.50;10.75;;;;;;;9.53;83.42;100333.09;1661729;84;21399;-67
2021/12/11 03:02:20;;;;;;;14.35;11.40;;;;;;;9.59;83.20;100337.41;1672263;85;21042;-68
2021/12/11 03:04:53;;;;;;;14.68;12.35;;;;;;;9.62;83.06;100340.37;1691128;84;21139;-68
2021/12/11 03:07:23;;;;;;;17.40;12.35;;;;;;;9.65;82.89;100340.92;1675183;85;21057;-68
2021/12/11 03:09:54;;;;;;;14.60;12.13;;;;;;;9.67;82.72;100340.12;1690481;84;21051;-69
2021/12/11 03:12:23;;;;;;;14.00;11.10;;;;;;;9.69;82.43;100334.02;1664642;85;21560;-69
2021/12/11 03:14:50;;;;;;;14.35;11.38;;;;;;;9.71;82.27;100339.91;1692143;84;21079;-69
2021/12/11 03:17:18;;;;;;;15.72;11.55;;;;;;;9.70;82.13;100342.28;1675853;84;21160;-68
2021/12/11 03:19:46;;;;;;;16.65;11.80;;;;;;;9.67;81.95;100329.45;1688886;83;21046;-68
2021/12/11 03:22:19;;;;;;;16.97;12.15;;;;;;;9.66;81.86;100331.86;1676080;85;21086;-68
2021/12/11 03:24:47;;;;;;;14.55;12.15;;;;;;;9.65;81.71;100331.06;1690992;84;21572;-68
2021/12/11 03:27:14;;;;;;;16.95;12.98;;;;;;;9.61;81.54;100331.30;1690863;84;21357;-68
2021/12/11 03:29:41;;;;;;;15.95;12.98;;;;;;;9.59;81.54;100332.08;1679415;83;21162;-68
2021/12/11 03:32:09;;;;;;;18.70;12.98;;;;;;;9.55;81.48;100334.98;1686932;84;20987;-68
2021/12/11 03:34:39;;;;;;;15.65;12.13;;;;;;;9.55;81.46;100335.78;1682938;84;21141;-68
2021/12/11 03:37:08;;;;;;;15.63;12.70;;;;;;;9.57;81.39;100318.98;1725427;81;21093;-69
2021/12/11 03:39:39;;;;;;;16.65;13.15;;;;;;;9.58;81.26;100316.61;1716523;81;21174;-68
2021/12/11 03:42:14;;;;;;;19.00;14.63;;;;;;;9.58;81.14;100313.15;1726244;83;21093;-68
2021/12/11 03:44:42;;;;;;;18.02;13.88;;;;;;;9.56;81.12;100316.59;1723076;81;21055;-67
2021/12/11 03:47:15;;;;;;;18.45;14.00;;;;;;;9.57;81.03;100306.19;1687990;83;21114;-67
2021/12/11 03:49:42;;;;;;;19.15;13.98;;;;;;;9.55;80.95;100302.45;1725621;83;21022;-67
2021/12/11 03:52:10;;;;;;;16.30;13.40;;;;;;;9.56;80.89;100306.72;1717465;81;21065;-68
2021/12/11 03:54:39;;;;;;;14.98;12.95;;;;;;;9.55;80.90;100305.66;1755583;81;21812;-68
2021/12/11 03:57:07;;;;;;;14.87;12.28;;;;;;;9.56;80.81;100312.05;1755794;81;20963;-68
2021/12/11 03:59:34;;;;;;;17.10;13.22;;;;;;;9.53;80.66;100315.23;1755415;81;22271;-68
2021/12/11 04:02:08;;;;;;;18.85;12.53;;;;;;;9.54;80.58;100304.03;1742757;81;21048;-68
2021/12/11 04:04:47;;;;;;;16.00;12.93;;;;;;;9.54;80.52;100308.86;1692857;84;21116;-67
2021/12/11 04:07:19;;;;;;;16.00;12.80;;;;;;;9.54;80.42;100310.19;1692964;84;21132;-68
2021/12/11 04:09:45;;;;;;;14.78;12.10;;;;;;;9.55;80.36;100311.79;1692666;84;20994;-68
2021/12/11 04:12:13;;;;;;;15.10;12.18;;;;;;;9.57;80.16;100302.98;1692597;83;21162;-68
2021/12/11 04:14:43;;;;;;;14.18;12.03;;;;;;;9.58;80.04;100298.48;1692759;84;21102;-68
2021/12/11 04:17:13;;;;;;;16.93;12.65;;;;;;;9.59;79.97;100296.88;1678011;85;21066;-69
2021/12/11 04:19:41;;;;;;;16.45;12.33;;;;;;;9.61;79.85;100300.64;1692579;84;21120;-68
2021/12/11 04:22:08;;;;;;;14.63;12.40;;;;;;;9.59;79.82;100292.08;1677122;85;20956;-68
2021/12/11 04:24:37;;;;;;;15.30;12.45;;;;;;;9.56;79.78;100296.59;1692876;84;21017;-67
2021/12/11 04:27:05;;;;;;;14.78;12.23;;;;;;;9.54;79.81;100290.20;1677227;85;21030;-68
2021/12/11 04:29:32;;;;;;;13.80;11.40;;;;;;;9.56;79.68;100289.39;1692821;84;21043;-69
2021/12/11 04:32:01;;;;;;;16.07;12.70;;;;;;;9.59;79.61;100295.55;1677573;85;21173;-67
2021/12/11 04:34:31;;;;;;;15.98;12.65;;;;;;;9.56;79.63;100293.39;1676663;85;21517;-68
2021/12/11 04:37:10;;;;;;;16.93;13.10;;;;;;;9.57;79.50;100289.66;1677738;85;21043;-67
2021/12/11 04:39:36;;;;;;;16.62;12.13;;;;;;;9.52;79.52;100285.64;1675781;85;21626;-68
2021/12/11 04:42:08;;;;;;;16.60;12.85;;;;;;;9.52;79.51;100290.97;1677359;85;21522;-68
2021/12/11 04:44:37;;;;;;;16.60;12.78;;;;;;;9.51;79.54;100289.38;1692640;84;21084;-68
2021/12/11 04:47:10;;;;;;;17.50;12.70;;;;;;;9.52;79.46;100288.84;1692991;84;21489;-68
2021/12/11 04:49:45;;;;;;;16.45;12.60;;;;;;;9.48;79.53;100288.55;1666684;84;21019;-68
2021/12/11 04:52:14;;;;;;;17.15;13.25;;;;;;;9.45;79.64;100286.39;1691938;84;21139;-67
2021/12/11 05:00:07;;;;;;;16.32;12.18;;;;;;;9.49;79.57;100310.14;1692599;84;21538;-68
2021/12/11 05:05:10;;;;;;;16.20;13.18;;;;;;;9.29;80.18;100310.79;1664959;85;20437;-68
2021/12/11 05:10:16;;;;;;;18.07;13.70;;;;;;;9.31;80.30;100304.69;1693023;84;21933;-69
2021/12/11 05:12:43;;;;;;;18.30;12.03;;;;;;;9.31;80.35;100304.69;1682998;84;21026;-69
2021/12/11 05:15:20;;;;;;;17.20;12.80;;;;;;;9.33;80.37;100294.55;1692646;84;21247;-69
2021/12/11 05:17:47;;;;;;;18.17;13.30;;;;;;;9.32;80.37;100302.28;1676904;85;21090;-68
2021/12/11 05:20:15;;;;;;;17.67;12.68;;;;;;;9.22;80.71;100302.73;1692915;84;20985;-69
2021/12/11 05:22:42;;;;;;;20.65;13.55;;;;;;;9.22;80.76;100299.55;1677525;85;21157;-68
2021/12/11 05:25:09;;;;;;;18.07;12.73;;;;;;;9.25;80.75;100299.57;1692805;84;21135;-69
2021/12/11 05:27:39;;;;;;;15.60;12.13;;;;;;;9.25;80.80;100302.23;1677358;85;21031;-69
2021/12/11 05:30:11;;;;;;;15.68;12.03;;;;;;;9.25;80.82;100294.23;1677392;85;20987;-68
2021/12/11 05:32:40;;;;;;;15.43;11.93;;;;;;;9.27;80.79;100297.44;1677581;85;21613;-67
2021/12/11 05:35:08;;;;;;;16.65;13.35;;;;;;;9.31;80.67;100292.70;1677529;85;21124;-67
2021/12/11 05:37:35;;;;;;;16.25;12.25;;;;;;;9.33;80.53;100291.09;1677451;85;20967;-68
2021/12/11 05:40:03;;;;;;;15.83;12.23;;;;;;;9.37;80.35;100285.52;1692566;84;21071;-68
2021/12/11 05:42:30;;;;;;;16.40;12.75;;;;;;;9.37;80.19;100296.18;1690210;84;20987;-68
2021/12/11 05:44:57;;;;;;;16.40;13.00;;;;;;;9.32;80.22;100295.63;1692828;84;21007;-68
2021/12/11 05:47:24;;;;;;;16.45;13.35;;;;;;;9.32;80.14;100302.28;1693101;84;21869;-68
2021/12/11 05:49:51;;;;;;;15.08;11.85;;;;;;;9.29;80.18;100306.80;1692464;84;21130;-68
2021/12/11 05:52:18;;;;;;;16.85;12.40;;;;;;;9.32;80.03;100301.48;1692830;84;21082;-68
2021/12/11 05:54:46;;;;;;;16.42;12.93;;;;;;;9.35;79.90;100303.65;1692107;84;21062;-69
2021/12/11 05:57:16;;;;;;;17.10;12.73;;;;;;;9.34;79.76;100300.69;1693039;84;21014;-69
2021/12/11 05:59:44;;;;;;;18.10;13.38;;;;;;;9.35;79.66;100302.31;1692660;84;21142;-68
2021/12/11 06:02:24;;;;;;;17.67;12.68;;;;;;;9.32;79.53;100302.82;1691846;84;21059;-68
2021/12/11 06:04:55;;;;;;;16.97;12.45;;;;;;;9.33;79.41;100305.75;1691008;84;21589;-68
2021/12/11 06:07:24;;;;;;;16.32;11.88;;;;;;;9.32;79.35;100301.48;1691376;84;21090;-68
2021/12/11 06:09:59;;;;;;;17.17;12.23;;;;;;;9.33;79.11;100291.89;1688971;84;21076;-68
2021/12/11 06:12:26;;;;;;;17.32;12.37;;;;;;;9.34;79.07;100277.50;1713968;83;21126;-68
2021/12/11 06:14:53;;;;;;;17.98;12.00;;;;;;;9.33;78.94;100291.89;1713944;83;21051;-68
2021/12/11 06:17:27;;;;;;;19.12;13.15;;;;;;;9.35;78.85;100295.65;1715003;83;21410;-68
2021/12/11 06:19:56;;;;;;;16.57;12.33;;;;;;;9.32;78.79;100278.30;1715512;83;20963;-68
2021/12/11 06:22:32;;;;;;;16.25;12.28;;;;;;;8.72;80.36;100290.03;1715619;83;20955;-68
2021/12/11 06:25:03;;;;;;;16.62;12.98;;;;;;;8.48;81.50;100287.36;1715763;83;21153;-68
2021/12/11 06:27:31;;;;;;;19.98;13.15;;;;;;;8.42;82.14;100293.14;1715340;83;21043;-68
2021/12/11 06:29:58;;;;;;;16.73;12.13;;;;;;;8.41;82.53;100298.20;1715568;83;21644;-68
2021/12/11 06:32:25;;;;;;;17.20;12.80;;;;;;;8.44;82.55;100298.50;1715686;83;20960;-68
2021/12/11 06:34:53;;;;;;;16.20;12.75;;;;;;;8.48;82.62;100298.80;1715568;83;21051;-68
2021/12/11 06:37:21;;;;;;;15.40;12.40;;;;;;;8.43;82.72;100300.09;1715597;83;21175;-68
2021/12/11 06:39:49;;;;;;;19.40;14.35;;;;;;;8.47;82.75;100298.53;1717423;83;21131;-68
2021/12/11 06:42:17;;;;;;;16.45;12.98;;;;;;;8.43;82.87;100306.75;1727735;83;20972;-69
2021/12/11 06:44:44;;;;;;;16.40;12.65;;;;;;;8.42;82.99;100299.80;1727566;83;21045;-68
2021/12/11 06:47:11;;;;;;;17.52;13.22;;;;;;;8.41;83.11;100296.34;1728051;83;21573;-68
2021/12/11 06:49:39;;;;;;;18.10;12.82;;;;;;;8.40;83.19;100297.92;1727746;83;21856;-69
2021/12/11 06:52:14;;;;;;;17.95;12.55;;;;;;;8.40;83.27;100286.75;1727911;83;20991;-69
2021/12/11 06:54:41;;;;;;;17.82;13.05;;;;;;;8.42;83.27;100301.13;1727846;83;21549;-68
2021/12/11 06:57:07;;;;;;;18.02;12.93;;;;;;;8.42;83.32;100301.13;1728040;83;21034;-69
2021/12/11 06:59:35;;;;;;;17.07;13.30;;;;;;;8.43;83.37;100300.09;1727641;83;21083;-69
2021/12/11 07:02:02;;;;;;;16.60;13.32;;;;;;;8.44;83.42;100307.02;1727287;82;21853;-69
2021/12/11 07:04:29;;;;;;;17.37;13.58;;;;;;;8.43;83.42;100305.42;1727705;83;20937;-69
2021/12/11 07:06:56;;;;;;;16.15;12.53;;;;;;;8.44;83.44;100310.48;1727860;83;20983;-69
2021/12/11 07:09:25;;;;;;;17.48;13.28;;;;;;;8.47;83.44;100312.38;1726609;83;21105;-69
2021/12/11 07:11:52;;;;;;;18.55;13.35;;;;;;;8.45;83.30;100314.73;1728058;83;21011;-68
2021/12/11 07:14:21;;;;;;;24.32;14.70;;;;;;;8.48;83.29;100321.95;1726033;83;21811;-69
2021/12/11 07:16:48;;;;;;;18.80;14.07;;;;;;;8.48;83.19;100316.11;1727600;83;21046;-68
2021/12/11 07:19:15;;;;;;;19.20;14.07;;;;;;;8.49;83.12;100319.56;1727361;83;21121;-68
2021/12/11 07:21:42;;;;;;;18.20;14.53;;;;;;;8.50;83.02;100319.34;1727326;83;20971;-69
2021/12/11 07:24:11;;;;;;;19.32;14.30;;;;;;;8.49;82.87;100324.39;1727808;83;20946;-69
2021/12/11 07:26:38;;;;;;;19.45;14.40;;;;;;;8.50;82.83;100318.53;1693312;84;21143;-68
2021/12/11 07:29:10;;;;;;;18.10;13.75;;;;;;;8.53;82.78;100331.34;1691821;83;20969;-68
2021/12/11 07:31:38;;;;;;;21.07;15.28;;;;;;;8.51;82.74;100322.27;1693348;84;21005;-69
2021/12/11 07:34:04;;;;;;;20.17;14.58;;;;;;;8.52;82.65;100329.19;1693207;84;21108;-68
2021/12/11 07:36:32;;;;;;;20.12;14.85;;;;;;;8.54;82.61;100336.94;1693089;84;21650;-68
2021/12/11 07:39:03;;;;;;;20.12;14.10;;;;;;;8.55;82.50;100326.03;1690858;84;21116;-69
2021/12/11 07:41:30;;;;;;;17.37;13.80;;;;;;;8.57;82.40;100329.80;1687616;85;21152;-69
2021/12/11 07:43:57;;;;;;;19.00;15.25;;;;;;;8.58;82.36;100324.20;1687192;85;20980;-68
2021/12/11 07:46:26;;;;;;;19.70;15.75;;;;;;;8.59;82.26;100324.50;1687041;85;21055;-68
2021/12/11 07:48:53;;;;;;;20.62;15.35;;;;;;;8.58;82.19;100329.53;1687295;85;21088;-70
2021/12/11 07:51:20;;;;;;;17.50;14.07;;;;;;;8.56;82.21;100327.66;1654143;86;21173;-69
2021/12/11 07:53:48;;;;;;;17.30;14.58;;;;;;;8.56;82.26;100325.00;1687583;85;21539;-69
2021/12/11 07:56:17;;;;;;;19.00;14.35;;;;;;;8.53;82.32;100330.82;1654498;86;20980;-69
2021/12/11 07:58:44;;;;;;;20.62;15.15;;;;;;;8.51;82.51;100324.13;1687556;85;21581;-69
2021/12/11 08:01:11;;;;;;;18.12;13.83;;;;;;;8.49;82.64;100322.23;1654133;86;21515;-69
2021/12/11 08:03:38;;;;;;;18.23;14.05;;;;;;;8.46;82.71;100330.20;1687580;85;21171;-68
2021/12/11 08:06:08;;;;;;;18.80;14.47;;;;;;;8.44;82.90;100324.31;1654091;86;21556;-69
2021/12/11 08:08:36;;;;;;;17.80;14.00;;;;;;;8.41;83.01;100323.48;1659924;84;21015;-69
2021/12/11 08:11:11;;;;;;;16.70;13.58;;;;;;;8.36;83.19;100329.53;1692939;84;21047;-69
2021/12/11 08:13:37;;;;;;;16.50;13.43;;;;;;;8.33;83.44;100330.55;1693022;84;20979;-69
2021/12/11 08:16:04;;;;;;;18.50;14.98;;;;;;;8.30;83.71;100325.72;1693001;84;21183;-69
2021/12/11 08:18:32;;;;;;;16.27;13.38;;;;;;;8.27;83.87;100324.88;1692887;84;21031;-69
2021/12/11 08:20:58;;;;;;;17.45;13.48;;;;;;;8.23;84.08;100327.23;1692886;84;21641;-68
2021/12/11 08:23:26;;;;;;;17.45;13.60;;;;;;;8.20;84.32;100326.39;1677805;85;21095;-67
2021/12/11 08:25:54;;;;;;;16.27;13.30;;;;;;;8.18;84.48;100331.14;1677619;85;21152;-69
2021/12/11 08:28:28;;;;;;;16.12;13.35;;;;;;;8.15;84.63;100325.78;1676824;84;21235;-68
2021/12/11 08:30:56;;;;;;;16.05;12.73;;;;;;;8.14;84.80;100325.52;1695906;83;21079;-69
2021/12/11 08:33:23;;;;;;;18.15;14.13;;;;;;;8.11;84.92;100323.88;1677652;85;21043;-68
2021/12/11 08:35:50;;;;;;;15.72;12.03;;;;;;;8.05;85.24;100324.32;1692522;84;21546;-69
2021/12/11 08:38:17;;;;;;;16.42;12.60;;;;;;;8.01;85.43;100323.21;1677615;85;21050;-68
2021/12/11 08:40:49;;;;;;;17.07;13.18;;;;;;;7.97;85.65;100320.24;1692930;84;21518;-69
2021/12/11 08:43:18;;;;;;;17.30;13.05;;;;;;;7.97;85.71;100317.58;1693051;84;21007;-68
2021/12/11 08:45:57;;;;;;;17.75;13.62;;;;;;;7.99;85.75;100313.33;1691596;84;21086;-69
2021/12/11 08:48:21;;;;;;;16.62;12.98;;;;;;;7.98;85.84;100324.50;1677373;85;21018;-69
2021/12/11 08:50:51;;;;;;;17.50;12.50;;;;;;;7.98;85.99;100321.04;1692875;84;21057;-69
2021/12/11 08:53:18;;;;;;;16.10;12.65;;;;;;;7.97;85.89;100315.45;1677268;85;21873;-70
2021/12/11 08:55:49;;;;;;;16.30;12.88;;;;;;;7.97;85.88;100305.61;1676610;85;21411;-68
2021/12/11 08:58:17;;;;;;;17.98;12.63;;;;;;;7.95;85.84;100312.22;1651890;85;20991;-69
2021/12/11 09:00:50;;;;;;;17.92;13.30;;;;;;;7.99;85.70;100314.16;1690206;83;21180;-69
2021/12/11 09:03:26;;;;;;;;;;;;;;;7.98;85.39;100305.08;1663211;85;20987;-69
2021/12/11 09:05:58;;;;;;;16.95;12.50;;;;;;;7.99;85.33;100322.64;1686595;84;21163;-69
2021/12/11 09:08:28;;;;;;;;;;;;;;;7.96;85.14;100309.83;1676656;85;21007;-69
2021/12/11 09:11:04;;;;;;;17.17;12.53;;;;;;;7.95;84.95;100305.05;1655625;84;20158;-69
2021/12/11 09:13:38;;;;;;;16.50;11.48;;;;;;;7.96;85.04;100307.17;1675585;85;20975;-69
2021/12/11 09:16:29;;;;;;;16.17;12.70;;;;;;;7.98;84.98;100304.55;1692897;84;20952;-69
2021/12/11 09:19:08;;;;;;;15.98;12.28;;;;;;;7.99;84.99;100298.70;1674656;84;21544;-69
2021/12/11 09:22:07;;;;;;;17.25;13.35;;;;;;;7.93;85.00;100301.84;1633108;85;21633;-68
2021/12/11 09:24:54;;;;;;;17.27;11.63;;;;;;;7.88;85.00;100306.28;1686729;84;21007;-68
2021/12/11 09:27:29;;;;;;;18.25;13.15;;;;;;;8.13;84.25;100309.28;1676021;85;21083;-71
2021/12/11 09:30:02;;;;;;;17.57;13.15;;;;;;;7.95;84.34;100314.35;1657207;86;21056;-69
2021/12/11 09:32:47;;;;;;;15.63;12.07;;;;;;;7.87;84.48;100311.33;1683775;84;21164;-69
2021/12/11 09:35:25;;;;;;;18.77;13.70;;;;;;;7.86;84.53;100305.70;1677701;85;21058;-69
2021/12/11 09:37:59;;;;;;;17.37;13.80;;;;;;;7.80;84.51;100310.17;1457386;85;10000462;-70
2021/12/11 09:40:37;;;;;;;17.55;12.55;;;;;;;7.80;84.91;100308.01;1676248;85;21156;-71
2021/12/11 09:43:03;;;;;;;17.57;12.90;;;;;;;7.76;84.67;100310.35;1675200;85;21077;-69
2021/12/11 09:45:35;;;;;;;18.15;12.85;;;;;;;7.71;84.72;100311.09;1681140;84;21038;-69
2021/12/11 09:48:05;;;;;;;;;;;;;;;7.68;84.82;100308.13;1712081;82;21058;-69
2021/12/11 09:50:46;;;;;;;16.57;12.13;;;;;;;7.64;84.83;100303.82;1720387;83;20196;-69
2021/12/11 09:53:08;;;;;;;18.27;12.07;;;;;;;7.60;84.93;100305.36;1642583;86;21149;-69
2021/12/11 09:55:37;;;;;;;17.27;12.30;;;;;;;7.61;84.99;100297.66;1712914;83;21150;-69
2021/12/11 09:58:13;;;;;;;18.20;13.03;;;;;;;7.60;84.98;100296.55;1687087;84;21489;-69
2021/12/11 10:00:46;;;;;;;18.75;12.33;;;;;;;7.61;85.02;100300.84;1691436;84;21009;-67
2021/12/11 10:03:14;;;;;;;19.77;13.43;;;;;;;7.74;84.69;100299.17;1673089;85;21645;-68
2021/12/11 10:05:49;;;;;;;18.73;12.70;;;;;;;7.87;84.15;100304.15;1687727;84;21134;-70
2021/12/11 10:08:36;;;;;;;15.95;11.95;;;;;;;7.87;83.98;100305.48;1656518;85;21022;-68
2021/12/11 10:11:18;;;;;;;15.90;11.93;;;;;;;7.66;84.49;100303.03;1690888;84;21475;-70
2021/12/11 10:13:56;;;;;;;16.75;12.60;;;;;;;7.59;84.85;100302.41;1675392;85;21655;-67
2021/12/11 10:16:28;;;;;;;18.00;12.80;;;;;;;7.58;85.21;100305.31;1687592;84;21101;-70
2021/12/11 10:18:55;;;;;;;17.62;12.10;;;;;;;7.53;85.49;100315.33;1680664;84;21145;-70
2021/12/11 10:21:31;;;;;;;17.52;12.37;;;;;;;7.50;85.81;100310.00;1714815;82;21415;-68
2021/12/11 10:24:00;;;;;;;15.95;12.07;;;;;;;7.47;86.11;100302.51;1711974;83;21293;-69
2021/12/11 10:26:27;;;;;;;18.00;12.28;;;;;;;7.49;86.31;100311.55;1697125;83;21054;-69
2021/12/11 10:28:58;;;;;;;14.83;10.85;;;;;;;7.48;86.63;100323.23;1722093;83;21125;-70
2021/12/11 10:31:35;;;;;;;15.18;11.18;;;;;;;7.46;86.75;100322.66;1689633;83;21822;-68
2021/12/11 10:34:06;;;;;;;14.93;10.72;;;;;;;7.45;86.92;100321.86;1690940;84;21538;-69
2021/12/11 10:36:40;;;;;;;14.93;10.40;;;;;;;7.43;86.94;100317.83;1692271;84;21547;-68
2021/12/11 10:39:10;;;;;;;14.58;11.00;;;;;;;7.42;86.96;100332.17;1686023;84;21098;-68
2021/12/11 10:41:37;;;;;;;16.35;11.35;;;;;;;7.41;87.08;100326.59;1675729;85;21089;-69
2021/12/11 10:44:10;;;;;;;15.20;10.95;;;;;;;7.40;87.19;100329.73;1691053;84;21153;-69
2021/12/11 10:46:43;;;;;;;15.83;10.98;;;;;;;7.37;87.26;100331.58;1690720;84;21141;-69
2021/12/11 10:49:12;;;;;;;14.45;10.45;;;;;;;7.33;87.42;100323.78;1673049;85;21062;-69
2021/12/11 10:51:46;;;;;;;14.58;11.12;;;;;;;7.30;87.60;100326.92;1675452;85;21150;-68
2021/12/11 10:54:14;;;;;;;14.13;10.18;;;;;;;7.28;87.81;100320.53;1691804;84;21027;-68
2021/12/11 10:56:41;;;;;;;12.18;9.10;;;;;;;7.26;88.08;100319.16;1662208;86;21142;-69
2021/12/11 10:59:18;;;;;;;11.75;9.25;;;;;;;7.26;88.21;100317.83;1690554;84;21042;-69
2021/12/11 11:02:17;;;;;;;12.78;9.23;;;;;;;7.23;88.44;100323.62;1691055;84;21125;-70
2021/12/11 11:04:48;;;;;;;12.37;8.80;;;;;;;7.22;88.57;100320.16;1691077;84;21009;-70
2021/12/11 11:07:14;;;;;;;12.37;8.83;;;;;;;7.18;88.96;100320.37;1691402;84;21062;-69
2021/12/11 11:09:43;;;;;;;10.85;8.35;;;;;;;7.15;89.19;100325.36;1674815;85;21353;-68
2021/12/11 11:12:14;;;;;;;11.33;8.30;;;;;;;7.15;89.26;100313.41;1678788;84;21200;-68
2021/12/11 11:14:41;;;;;;;12.07;7.90;;;;;;;7.14;89.32;100315.26;1692093;84;21007;-68
2021/12/11 11:17:13;;;;;;;10.20;7.60;;;;;;;7.12;89.38;100319.99;1686995;84;21097;-67
2021/12/11 11:19:40;;;;;;;10.48;7.92;;;;;;;7.10;89.45;100318.09;1674132;84;21093;-69
2021/12/11 11:22:15;;;;;;;9.45;7.40;;;;;;;7.12;89.61;100325.30;1691159;84;21616;-69
2021/12/11 11:24:56;;;;;;;10.53;7.97;;;;;;;7.11;89.75;100332.17;1644136;87;21147;-69
2021/12/11 11:27:22;;;;;;;11.70;8.43;;;;;;;7.10;89.77;100330.56;1664435;85;21100;-69
2021/12/11 11:29:50;;;;;;;10.72;7.45;;;;;;;7.11;89.87;100318.89;1690695;84;21098;-68
2021/12/11 11:32:21;;;;;;;10.43;7.70;;;;;;;7.10;89.91;100319.41;1690787;84;21082;-70
2021/12/11 11:34:47;;;;;;;9.63;7.20;;;;;;;7.13;89.89;100327.44;1674622;85;21169;-68
2021/12/11 11:37:19;;;;;;;10.53;7.45;;;;;;;7.17;89.97;100334.70;1690905;84;21086;-68
2021/12/11 11:39:47;;;;;;;9.53;6.92;;;;;;;7.20;89.96;100331.54;1676745;84;21172;-72
2021/12/11 11:42:19;;;;;;;10.18;7.12;;;;;;;7.22;89.98;100333.97;1675642;85;21091;-68
2021/12/11 11:44:46;;;;;;;9.63;7.00;;;;;;;7.24;89.97;100333.22;1691037;84;26440;-67
2021/12/11 11:47:14;;;;;;;8.23;6.00;;;;;;;7.26;89.92;100345.19;1689870;84;22473;-69
2021/12/11 11:49:42;;;;;;;9.03;6.53;;;;;;;7.29;89.92;100341.26;1690612;84;21082;-70